Terminal Aerodrome Forecast
Issued by NWS

Home | Current Version | Previous Version | Text Only | Print | Product List | Glossary On
Versions: 1 2 3 4 5 6 7 8 9 10 11 12 13 14 15 16 17 18 19 20 21 22 23 24 25 26 27 28
000
FTUS44 KFWD 011510 AAB
TAFFTW
TAF AMD
KFTW 011510Z 0115/0212 18011KT 5SM BR VCSH SCT015 OVC100
     FM011600 18014KT P6SM SCT025 BKN250
     FM012100 18015KT P6SM VCTS BKN040CB
     FM020100 17016KT P6SM SCT040 BKN250
     FM020600 18017KT P6SM BKN018=

USA.gov is the U.S. government's official web portal to all federal, state and local government web resources and services.